sensor_id;sensor_type;location;lat;lon;timestamp;P1;durP1;ratioP1;P2;durP2;ratioP2
48627;SDS011;34424;52.234;6.500;2023-03-13T00:02:51;22.27;;;7.23;;
48627;SDS011;34424;52.234;6.500;2023-03-13T00:07:55;26.50;;;6.33;;
48627;SDS011;34424;52.234;6.500;2023-03-13T00:12:58;17.70;;;5.40;;
48627;SDS011;34424;52.234;6.500;2023-03-13T00:18:00;17.03;;;6.47;;
48627;SDS011;34424;52.234;6.500;2023-03-13T00:23:04;21.97;;;6.60;;
48627;SDS011;34424;52.234;6.500;2023-03-13T00:28:07;17.55;;;6.53;;
48627;SDS011;34424;52.234;6.500;2023-03-13T00:33:09;24.17;;;7.17;;
48627;SDS011;34424;52.234;6.500;2023-03-13T00:38:13;21.43;;;6.43;;
48627;SDS011;34424;52.234;6.500;2023-03-13T00:43:16;26.27;;;7.65;;
48627;SDS011;34424;52.234;6.500;2023-03-13T00:48:19;20.80;;;6.40;;
48627;SDS011;34424;52.234;6.500;2023-03-13T00:53:23;27.80;;;7.43;;
48627;SDS011;34424;52.234;6.500;2023-03-13T00:58:26;20.58;;;7.40;;
48627;SDS011;34424;52.234;6.500;2023-03-13T01:03:30;19.20;;;6.15;;
48627;SDS011;34424;52.234;6.500;2023-03-13T01:08:34;25.63;;;7.97;;
48627;SDS011;34424;52.234;6.500;2023-03-13T01:13:37;20.02;;;7.97;;
48627;SDS011;34424;52.234;6.500;2023-03-13T01:18:41;18.95;;;6.43;;
48627;SDS011;34424;52.234;6.500;2023-03-13T01:23:46;19.55;;;6.97;;
48627;SDS011;34424;52.234;6.500;2023-03-13T01:28:50;20.98;;;7.35;;
48627;SDS011;34424;52.234;6.500;2023-03-13T01:33:54;28.23;;;7.05;;
48627;SDS011;34424;52.234;6.500;2023-03-13T01:38:59;25.15;;;8.65;;
48627;SDS011;34424;52.234;6.500;2023-03-13T01:44:02;25.10;;;8.05;;
48627;SDS011;34424;52.234;6.500;2023-03-13T01:49:05;23.37;;;8.90;;
48627;SDS011;34424;52.234;6.500;2023-03-13T01:54:13;23.55;;;7.47;;
48627;SDS011;34424;52.234;6.500;2023-03-13T01:59:21;20.42;;;8.60;;
48627;SDS011;34424;52.234;6.500;2023-03-13T02:04:26;19.30;;;8.07;;
48627;SDS011;34424;52.234;6.500;2023-03-13T02:09:34;22.75;;;6.82;;
48627;SDS011;34424;52.234;6.500;2023-03-13T02:14:38;20.42;;;7.00;;
48627;SDS011;34424;52.234;6.500;2023-03-13T02:19:45;19.73;;;7.47;;
48627;SDS011;34424;52.234;6.500;2023-03-13T02:24:51;14.90;;;7.75;;
48627;SDS011;34424;52.234;6.500;2023-03-13T02:29:59;23.70;;;8.30;;
48627;SDS011;34424;52.234;6.500;2023-03-13T02:35:03;16.85;;;7.53;;
48627;SDS011;34424;52.234;6.500;2023-03-13T02:40:10;19.63;;;6.60;;
48627;SDS011;34424;52.234;6.500;2023-03-13T02:45:17;17.27;;;6.50;;
48627;SDS011;34424;52.234;6.500;2023-03-13T02:50:20;18.55;;;6.45;;
48627;SDS011;34424;52.234;6.500;2023-03-13T02:55:23;14.30;;;6.32;;
48627;SDS011;34424;52.234;6.500;2023-03-13T03:00:30;13.05;;;6.28;;
48627;SDS011;34424;52.234;6.500;2023-03-13T03:05:34;14.65;;;6.15;;
48627;SDS011;34424;52.234;6.500;2023-03-13T03:10:37;15.35;;;6.57;;
48627;SDS011;34424;52.234;6.500;2023-03-13T03:15:41;11.30;;;6.27;;
48627;SDS011;34424;52.234;6.500;2023-03-13T03:20:43;13.48;;;7.00;;
48627;SDS011;34424;52.234;6.500;2023-03-13T03:25:46;15.63;;;7.57;;
48627;SDS011;34424;52.234;6.500;2023-03-13T03:30:50;12.00;;;7.17;;
48627;SDS011;34424;52.234;6.500;2023-03-13T03:35:58;18.67;;;7.88;;
48627;SDS011;34424;52.234;6.500;2023-03-13T03:41:01;14.93;;;7.47;;
48627;SDS011;34424;52.234;6.500;2023-03-13T03:46:05;14.53;;;7.47;;
48627;SDS011;34424;52.234;6.500;2023-03-13T03:51:09;14.02;;;8.55;;
48627;SDS011;34424;52.234;6.500;2023-03-13T03:56:11;13.43;;;8.30;;
48627;SDS011;34424;52.234;6.500;2023-03-13T04:01:15;12.88;;;7.43;;
48627;SDS011;34424;52.234;6.500;2023-03-13T04:06:18;13.77;;;8.15;;
48627;SDS011;34424;52.234;6.500;2023-03-13T04:11:21;11.27;;;7.73;;
48627;SDS011;34424;52.234;6.500;2023-03-13T04:16:25;11.83;;;7.60;;
48627;SDS011;34424;52.234;6.500;2023-03-13T04:21:28;12.77;;;7.85;;
48627;SDS011;34424;52.234;6.500;2023-03-13T04:26:31;14.37;;;8.20;;
48627;SDS011;34424;52.234;6.500;2023-03-13T04:31:35;13.70;;;8.20;;
48627;SDS011;34424;52.234;6.500;2023-03-13T04:36:37;13.68;;;8.63;;
48627;SDS011;34424;52.234;6.500;2023-03-13T04:41:40;11.97;;;7.67;;
48627;SDS011;34424;52.234;6.500;2023-03-13T04:46:44;13.07;;;8.23;;
48627;SDS011;34424;52.234;6.500;2023-03-13T04:51:47;13.82;;;8.77;;
48627;SDS011;34424;52.234;6.500;2023-03-13T04:56:49;14.53;;;8.50;;
48627;SDS011;34424;52.234;6.500;2023-03-13T05:01:53;13.67;;;8.13;;
48627;SDS011;34424;52.234;6.500;2023-03-13T05:06:56;13.23;;;8.20;;
48627;SDS011;34424;52.234;6.500;2023-03-13T05:11:58;16.07;;;8.93;;
48627;SDS011;34424;52.234;6.500;2023-03-13T05:17:02;12.67;;;8.43;;
48627;SDS011;34424;52.234;6.500;2023-03-13T05:22:05;14.60;;;9.02;;
48627;SDS011;34424;52.234;6.500;2023-03-13T05:27:07;10.83;;;8.43;;
48627;SDS011;34424;52.234;6.500;2023-03-13T05:32:11;12.27;;;8.70;;
48627;SDS011;34424;52.234;6.500;2023-03-13T05:37:14;13.38;;;10.20;;
48627;SDS011;34424;52.234;6.500;2023-03-13T05:42:16;16.60;;;10.40;;
48627;SDS011;34424;52.234;6.500;2023-03-13T05:47:20;13.87;;;9.00;;
48627;SDS011;34424;52.234;6.500;2023-03-13T05:52:23;13.63;;;9.40;;
48627;SDS011;34424;52.234;6.500;2023-03-13T05:57:26;11.53;;;7.80;;
48627;SDS011;34424;52.234;6.500;2023-03-13T06:02:29;15.33;;;8.90;;
48627;SDS011;34424;52.234;6.500;2023-03-13T06:07:33;10.68;;;7.60;;
48627;SDS011;34424;52.234;6.500;2023-03-13T06:12:36;9.38;;;7.07;;
48627;SDS011;34424;52.234;6.500;2023-03-13T06:17:40;8.75;;;6.43;;
48627;SDS011;34424;52.234;6.500;2023-03-13T06:22:43;12.10;;;7.40;;
48627;SDS011;34424;52.234;6.500;2023-03-13T06:27:45;9.57;;;7.10;;
48627;SDS011;34424;52.234;6.500;2023-03-13T06:32:49;11.37;;;6.70;;
48627;SDS011;34424;52.234;6.500;2023-03-13T06:37:52;10.50;;;7.65;;
48627;SDS011;34424;52.234;6.500;2023-03-13T06:42:55;16.45;;;7.05;;
48627;SDS011;34424;52.234;6.500;2023-03-13T06:47:59;9.40;;;6.47;;
48627;SDS011;34424;52.234;6.500;2023-03-13T06:53:01;8.55;;;5.60;;
48627;SDS011;34424;52.234;6.500;2023-03-13T06:58:04;11.33;;;6.20;;
48627;SDS011;34424;52.234;6.500;2023-03-13T07:03:08;10.20;;;5.27;;
48627;SDS011;34424;52.234;6.500;2023-03-13T07:08:11;10.13;;;5.20;;
48627;SDS011;34424;52.234;6.500;2023-03-13T07:13:13;7.73;;;5.07;;
48627;SDS011;34424;52.234;6.500;2023-03-13T07:18:17;7.80;;;5.17;;
48627;SDS011;34424;52.234;6.500;2023-03-13T07:23:20;7.97;;;4.80;;
48627;SDS011;34424;52.234;6.500;2023-03-13T07:28:23;10.07;;;4.50;;
48627;SDS011;34424;52.234;6.500;2023-03-13T07:38:30;6.40;;;3.70;;
48627;SDS011;34424;52.234;6.500;2023-03-13T07:43:33;8.70;;;4.85;;
48627;SDS011;34424;52.234;6.500;2023-03-13T07:48:37;8.05;;;3.90;;
48627;SDS011;34424;52.234;6.500;2023-03-13T07:53:41;6.45;;;3.88;;
48627;SDS011;34424;52.234;6.500;2023-03-13T07:58:44;11.18;;;3.78;;
48627;SDS011;34424;52.234;6.500;2023-03-13T08:03:48;6.15;;;3.38;;
48627;SDS011;34424;52.234;6.500;2023-03-13T08:08:51;7.22;;;3.45;;
48627;SDS011;34424;52.234;6.500;2023-03-13T08:13:55;4.05;;;3.20;;
48627;SDS011;34424;52.234;6.500;2023-03-13T08:19:00;5.07;;;3.15;;
48627;SDS011;34424;52.234;6.500;2023-03-13T08:24:06;7.20;;;3.47;;
48627;SDS011;34424;52.234;6.500;2023-03-13T08:29:11;4.30;;;3.10;;
48627;SDS011;34424;52.234;6.500;2023-03-13T08:34:17;4.15;;;2.80;;
48627;SDS011;34424;52.234;6.500;2023-03-13T08:39:20;7.80;;;3.25;;
48627;SDS011;34424;52.234;6.500;2023-03-13T08:44:22;5.72;;;3.05;;
48627;SDS011;34424;52.234;6.500;2023-03-13T08:49:26;6.03;;;3.40;;
48627;SDS011;34424;52.234;6.500;2023-03-13T08:54:30;5.20;;;3.75;;
48627;SDS011;34424;52.234;6.500;2023-03-13T08:59:32;6.65;;;2.75;;
48627;SDS011;34424;52.234;6.500;2023-03-13T09:04:37;4.78;;;2.85;;
48627;SDS011;34424;52.234;6.500;2023-03-13T09:09:39;4.63;;;2.90;;
48627;SDS011;34424;52.234;6.500;2023-03-13T09:14:42;6.20;;;2.80;;
48627;SDS011;34424;52.234;6.500;2023-03-13T09:19:46;5.65;;;2.92;;
48627;SDS011;34424;52.234;6.500;2023-03-13T09:25:00;5.93;;;2.70;;
48627;SDS011;34424;52.234;6.500;2023-03-13T09:30:03;3.15;;;2.10;;
48627;SDS011;34424;52.234;6.500;2023-03-13T09:35:08;4.00;;;1.67;;
48627;SDS011;34424;52.234;6.500;2023-03-13T09:40:12;2.10;;;1.58;;
48627;SDS011;34424;52.234;6.500;2023-03-13T09:45:17;2.40;;;1.58;;
48627;SDS011;34424;52.234;6.500;2023-03-13T09:50:33;3.00;;;1.50;;
48627;SDS011;34424;52.234;6.500;2023-03-13T09:55:37;2.22;;;1.83;;
48627;SDS011;34424;52.234;6.500;2023-03-13T10:00:43;2.83;;;1.70;;
48627;SDS011;34424;52.234;6.500;2023-03-13T10:05:51;3.75;;;2.00;;
48627;SDS011;34424;52.234;6.500;2023-03-13T10:10:58;4.40;;;1.73;;
48627;SDS011;34424;52.234;6.500;2023-03-13T10:16:06;2.60;;;1.60;;
48627;SDS011;34424;52.234;6.500;2023-03-13T10:21:15;4.88;;;1.50;;
48627;SDS011;34424;52.234;6.500;2023-03-13T10:26:22;3.03;;;2.00;;
48627;SDS011;34424;52.234;6.500;2023-03-13T10:31:30;7.45;;;1.90;;
48627;SDS011;34424;52.234;6.500;2023-03-13T10:36:39;1.50;;;1.40;;
48627;SDS011;34424;52.234;6.500;2023-03-13T10:41:43;3.78;;;1.52;;
48627;SDS011;34424;52.234;6.500;2023-03-13T10:51:51;3.78;;;1.80;;
48627;SDS011;34424;52.234;6.500;2023-03-13T10:57:09;3.03;;;1.70;;
48627;SDS011;34424;52.234;6.500;2023-03-13T11:02:30;2.75;;;1.50;;
48627;SDS011;34424;52.234;6.500;2023-03-13T11:07:37;4.13;;;2.08;;
48627;SDS011;34424;52.234;6.500;2023-03-13T11:12:43;1.33;;;1.23;;
48627;SDS011;34424;52.234;6.500;2023-03-13T11:17:47;2.47;;;1.80;;
48627;SDS011;34424;52.234;6.500;2023-03-13T11:23:03;6.15;;;1.73;;
48627;SDS011;34424;52.234;6.500;2023-03-13T11:28:19;3.92;;;1.73;;
48627;SDS011;34424;52.234;6.500;2023-03-13T11:33:34;3.00;;;1.83;;
48627;SDS011;34424;52.234;6.500;2023-03-13T11:38:42;3.00;;;1.65;;
48627;SDS011;34424;52.234;6.500;2023-03-13T11:43:54;4.00;;;1.63;;
48627;SDS011;34424;52.234;6.500;2023-03-13T11:49:30;5.28;;;1.75;;
48627;SDS011;34424;52.234;6.500;2023-03-13T11:54:52;4.30;;;1.85;;
48627;SDS011;34424;52.234;6.500;2023-03-13T12:00:15;3.65;;;1.70;;
48627;SDS011;34424;52.234;6.500;2023-03-13T12:05:23;2.10;;;1.10;;
48627;SDS011;34424;52.234;6.500;2023-03-13T12:10:31;4.57;;;1.67;;
48627;SDS011;34424;52.234;6.500;2023-03-13T12:15:40;2.67;;;1.42;;
48627;SDS011;34424;52.234;6.500;2023-03-13T12:20:46;3.85;;;1.30;;
48627;SDS011;34424;52.234;6.500;2023-03-13T12:26:01;1.93;;;1.33;;
48627;SDS011;34424;52.234;6.500;2023-03-13T12:31:07;3.30;;;1.30;;
48627;SDS011;34424;52.234;6.500;2023-03-13T12:36:19;1.38;;;1.27;;
48627;SDS011;34424;52.234;6.500;2023-03-13T12:41:29;4.13;;;2.00;;
48627;SDS011;34424;52.234;6.500;2023-03-13T12:46:35;3.55;;;1.30;;
48627;SDS011;34424;52.234;6.500;2023-03-13T12:51:45;4.15;;;1.42;;
48627;SDS011;34424;52.234;6.500;2023-03-13T12:57:15;2.13;;;1.38;;
48627;SDS011;34424;52.234;6.500;2023-03-13T13:02:35;2.22;;;1.02;;
48627;SDS011;34424;52.234;6.500;2023-03-13T13:07:38;1.83;;;1.25;;
48627;SDS011;34424;52.234;6.500;2023-03-13T13:12:42;3.35;;;1.50;;
48627;SDS011;34424;52.234;6.500;2023-03-13T13:18:11;2.42;;;1.30;;
48627;SDS011;34424;52.234;6.500;2023-03-13T13:23:25;4.28;;;1.73;;
48627;SDS011;34424;52.234;6.500;2023-03-13T13:28:35;3.25;;;1.02;;
48627;SDS011;34424;52.234;6.500;2023-03-13T13:33:38;3.03;;;1.45;;
48627;SDS011;34424;52.234;6.500;2023-03-13T13:38:41;3.63;;;1.20;;
48627;SDS011;34424;52.234;6.500;2023-03-13T13:43:46;2.55;;;1.20;;
48627;SDS011;34424;52.234;6.500;2023-03-13T13:59:40;2.40;;;1.38;;
48627;SDS011;34424;52.234;6.500;2023-03-13T14:04:46;2.05;;;1.38;;
48627;SDS011;34424;52.234;6.500;2023-03-13T14:09:56;4.13;;;1.40;;
48627;SDS011;34424;52.234;6.500;2023-03-13T14:15:08;3.67;;;1.42;;
48627;SDS011;34424;52.234;6.500;2023-03-13T14:20:17;3.90;;;1.20;;
48627;SDS011;34424;52.234;6.500;2023-03-13T14:25:23;6.18;;;2.15;;
48627;SDS011;34424;52.234;6.500;2023-03-13T14:30:28;3.97;;;1.30;;
48627;SDS011;34424;52.234;6.500;2023-03-13T14:35:30;3.45;;;1.10;;
48627;SDS011;34424;52.234;6.500;2023-03-13T14:40:36;3.60;;;1.42;;
48627;SDS011;34424;52.234;6.500;2023-03-13T14:45:41;3.03;;;1.40;;
48627;SDS011;34424;52.234;6.500;2023-03-13T14:50:43;5.35;;;1.38;;
48627;SDS011;34424;52.234;6.500;2023-03-13T15:00:51;4.25;;;1.60;;
48627;SDS011;34424;52.234;6.500;2023-03-13T15:06:04;2.78;;;1.38;;
48627;SDS011;34424;52.234;6.500;2023-03-13T15:11:16;1.95;;;1.33;;
48627;SDS011;34424;52.234;6.500;2023-03-13T15:16:23;7.15;;;1.85;;
48627;SDS011;34424;52.234;6.500;2023-03-13T15:21:28;3.88;;;1.83;;
48627;SDS011;34424;52.234;6.500;2023-03-13T15:26:31;4.47;;;1.73;;
48627;SDS011;34424;52.234;6.500;2023-03-13T15:31:35;5.63;;;1.85;;
48627;SDS011;34424;52.234;6.500;2023-03-13T15:36:39;6.53;;;2.13;;
48627;SDS011;34424;52.234;6.500;2023-03-13T15:41:42;5.05;;;1.73;;
48627;SDS011;34424;52.234;6.500;2023-03-13T15:46:46;6.03;;;1.83;;
48627;SDS011;34424;52.234;6.500;2023-03-13T15:51:49;7.13;;;2.60;;
48627;SDS011;34424;52.234;6.500;2023-03-13T15:56:53;2.70;;;1.50;;
48627;SDS011;34424;52.234;6.500;2023-03-13T16:01:57;3.50;;;1.88;;
48627;SDS011;34424;52.234;6.500;2023-03-13T16:07:00;4.18;;;1.58;;
48627;SDS011;34424;52.234;6.500;2023-03-13T16:12:03;6.80;;;2.15;;
48627;SDS011;34424;52.234;6.500;2023-03-13T16:17:11;2.88;;;1.60;;
48627;SDS011;34424;52.234;6.500;2023-03-13T16:22:15;3.53;;;1.90;;
48627;SDS011;34424;52.234;6.500;2023-03-13T16:32:22;8.63;;;2.25;;
48627;SDS011;34424;52.234;6.500;2023-03-13T16:37:26;7.55;;;2.42;;
48627;SDS011;34424;52.234;6.500;2023-03-13T16:42:28;7.88;;;2.42;;
48627;SDS011;34424;52.234;6.500;2023-03-13T16:47:32;5.93;;;1.40;;
48627;SDS011;34424;52.234;6.500;2023-03-13T16:52:36;7.07;;;2.03;;
48627;SDS011;34424;52.234;6.500;2023-03-13T16:57:38;5.20;;;2.45;;
48627;SDS011;34424;52.234;6.500;2023-03-13T17:02:42;5.60;;;2.83;;
48627;SDS011;34424;52.234;6.500;2023-03-13T17:07:46;6.28;;;2.40;;
48627;SDS011;34424;52.234;6.500;2023-03-13T17:12:50;5.25;;;2.25;;
48627;SDS011;34424;52.234;6.500;2023-03-13T17:17:54;8.73;;;3.03;;
48627;SDS011;34424;52.234;6.500;2023-03-13T17:22:57;9.23;;;2.60;;
48627;SDS011;34424;52.234;6.500;2023-03-13T17:28:01;6.47;;;2.58;;
48627;SDS011;34424;52.234;6.500;2023-03-13T17:33:05;8.77;;;3.08;;
48627;SDS011;34424;52.234;6.500;2023-03-13T17:38:08;9.20;;;3.97;;
48627;SDS011;34424;52.234;6.500;2023-03-13T17:43:11;10.88;;;3.97;;
48627;SDS011;34424;52.234;6.500;2023-03-13T17:48:15;11.63;;;3.63;;
48627;SDS011;34424;52.234;6.500;2023-03-13T17:53:18;11.38;;;4.40;;
48627;SDS011;34424;52.234;6.500;2023-03-13T17:58:21;12.63;;;3.70;;
48627;SDS011;34424;52.234;6.500;2023-03-13T18:03:25;14.93;;;5.30;;
48627;SDS011;34424;52.234;6.500;2023-03-13T18:08:27;12.30;;;4.78;;
48627;SDS011;34424;52.234;6.500;2023-03-13T18:13:30;9.48;;;3.67;;
48627;SDS011;34424;52.234;6.500;2023-03-13T18:18:34;13.20;;;4.38;;
48627;SDS011;34424;52.234;6.500;2023-03-13T18:23:37;15.73;;;4.45;;
48627;SDS011;34424;52.234;6.500;2023-03-13T18:28:40;13.18;;;5.00;;
48627;SDS011;34424;52.234;6.500;2023-03-13T18:33:44;16.67;;;4.47;;
48627;SDS011;34424;52.234;6.500;2023-03-13T18:38:48;12.68;;;4.22;;
48627;SDS011;34424;52.234;6.500;2023-03-13T18:43:52;17.50;;;5.25;;
48627;SDS011;34424;52.234;6.500;2023-03-13T18:48:56;14.07;;;4.65;;
48627;SDS011;34424;52.234;6.500;2023-03-13T18:53:59;12.10;;;5.00;;
48627;SDS011;34424;52.234;6.500;2023-03-13T18:59:01;20.87;;;6.10;;
48627;SDS011;34424;52.234;6.500;2023-03-13T19:04:05;12.77;;;5.10;;
48627;SDS011;34424;52.234;6.500;2023-03-13T19:09:10;10.48;;;4.95;;
48627;SDS011;34424;52.234;6.500;2023-03-13T19:14:34;17.13;;;6.20;;
48627;SDS011;34424;52.234;6.500;2023-03-13T19:19:38;14.73;;;7.77;;
48627;SDS011;34424;52.234;6.500;2023-03-13T19:24:41;18.25;;;8.57;;
48627;SDS011;34424;52.234;6.500;2023-03-13T19:29:44;37.23;;;18.17;;
48627;SDS011;34424;52.234;6.500;2023-03-13T19:34:48;28.60;;;13.30;;
48627;SDS011;34424;52.234;6.500;2023-03-13T19:39:51;19.65;;;10.05;;
48627;SDS011;34424;52.234;6.500;2023-03-13T19:44:53;20.83;;;9.90;;
48627;SDS011;34424;52.234;6.500;2023-03-13T19:49:57;39.50;;;18.90;;
48627;SDS011;34424;52.234;6.500;2023-03-13T19:55:00;56.05;;;30.60;;
48627;SDS011;34424;52.234;6.500;2023-03-13T20:00:07;31.45;;;13.18;;
48627;SDS011;34424;52.234;6.500;2023-03-13T20:05:15;13.93;;;7.70;;
48627;SDS011;34424;52.234;6.500;2023-03-13T20:10:18;20.58;;;6.32;;
48627;SDS011;34424;52.234;6.500;2023-03-13T20:15:21;14.13;;;5.95;;
48627;SDS011;34424;52.234;6.500;2023-03-13T20:20:26;12.68;;;6.18;;
48627;SDS011;34424;52.234;6.500;2023-03-13T20:25:29;17.15;;;7.00;;
48627;SDS011;34424;52.234;6.500;2023-03-13T20:30:32;12.52;;;6.57;;
48627;SDS011;34424;52.234;6.500;2023-03-13T20:35:36;16.88;;;8.20;;
48627;SDS011;34424;52.234;6.500;2023-03-13T20:40:39;21.13;;;8.52;;
48627;SDS011;34424;52.234;6.500;2023-03-13T20:45:43;19.43;;;7.90;;
48627;SDS011;34424;52.234;6.500;2023-03-13T20:55:52;17.80;;;7.57;;
48627;SDS011;34424;52.234;6.500;2023-03-13T21:00:56;13.35;;;5.68;;
48627;SDS011;34424;52.234;6.500;2023-03-13T21:06:00;27.58;;;9.55;;
48627;SDS011;34424;52.234;6.500;2023-03-13T21:11:10;17.60;;;6.95;;
48627;SDS011;34424;52.234;6.500;2023-03-13T21:16:13;16.60;;;6.97;;
48627;SDS011;34424;52.234;6.500;2023-03-13T21:21:18;21.38;;;5.90;;
48627;SDS011;34424;52.234;6.500;2023-03-13T21:26:22;16.55;;;6.43;;
48627;SDS011;34424;52.234;6.500;2023-03-13T21:31:25;17.57;;;6.00;;
48627;SDS011;34424;52.234;6.500;2023-03-13T21:36:29;15.88;;;6.50;;
48627;SDS011;34424;52.234;6.500;2023-03-13T21:41:31;22.13;;;7.63;;
48627;SDS011;34424;52.234;6.500;2023-03-13T21:46:35;17.67;;;7.63;;
48627;SDS011;34424;52.234;6.500;2023-03-13T21:51:39;28.33;;;10.17;;
48627;SDS011;34424;52.234;6.500;2023-03-13T21:56:42;15.65;;;5.35;;
48627;SDS011;34424;52.234;6.500;2023-03-13T22:01:45;24.10;;;7.07;;
48627;SDS011;34424;52.234;6.500;2023-03-13T22:06:49;18.00;;;5.35;;
48627;SDS011;34424;52.234;6.500;2023-03-13T22:11:52;16.75;;;6.25;;
48627;SDS011;34424;52.234;6.500;2023-03-13T22:16:54;17.43;;;5.47;;
48627;SDS011;34424;52.234;6.500;2023-03-13T22:21:58;20.90;;;6.90;;
48627;SDS011;34424;52.234;6.500;2023-03-13T22:27:01;22.95;;;7.10;;
48627;SDS011;34424;52.234;6.500;2023-03-13T22:32:04;19.03;;;6.17;;
48627;SDS011;34424;52.234;6.500;2023-03-13T22:37:08;16.42;;;5.88;;
48627;SDS011;34424;52.234;6.500;2023-03-13T22:42:10;16.05;;;6.35;;
48627;SDS011;34424;52.234;6.500;2023-03-13T22:47:13;17.10;;;5.77;;
48627;SDS011;34424;52.234;6.500;2023-03-13T22:52:17;21.33;;;5.70;;
48627;SDS011;34424;52.234;6.500;2023-03-13T22:57:20;16.70;;;4.95;;
48627;SDS011;34424;52.234;6.500;2023-03-13T23:02:22;12.57;;;4.13;;
48627;SDS011;34424;52.234;6.500;2023-03-13T23:07:27;8.82;;;4.22;;
48627;SDS011;34424;52.234;6.500;2023-03-13T23:12:30;9.85;;;4.22;;
48627;SDS011;34424;52.234;6.500;2023-03-13T23:17:33;9.80;;;4.47;;
48627;SDS011;34424;52.234;6.500;2023-03-13T23:22:39;10.02;;;3.67;;
48627;SDS011;34424;52.234;6.500;2023-03-13T23:27:42;11.73;;;3.95;;
48627;SDS011;34424;52.234;6.500;2023-03-13T23:32:46;9.95;;;4.47;;
48627;SDS011;34424;52.234;6.500;2023-03-13T23:42:54;8.48;;;4.85;;
48627;SDS011;34424;52.234;6.500;2023-03-13T23:47:56;9.90;;;4.23;;
48627;SDS011;34424;52.234;6.500;2023-03-13T23:53:00;7.40;;;3.73;;
48627;SDS011;34424;52.234;6.500;2023-03-13T23:58:03;8.98;;;3.90;;
